Flight Track Log - Related Links

Times and Time Zones

All times are in EDT time to prevent confusion due to time zone crossing. See the RPA3228 flight status page for this flight to view local times or setup timezone preferences in your user account.

Time Position Orientation Groundspeed Altitude Reporting Facility
EDT Latitude Longitude Course Direction KTS MPH feet Rate Location/Type
Sun 10:27:02 AM 38.8833 -77.0500 57° Northeast 151 174 1,400  Level Potomac TRACON
Sun 10:29:00 AM 38.9844 -76.6468 67° East  Level FlightAware Approximate
Sun 10:29:28 AM 38.9969 -77.1514 325° Northwest 219 252 8,100  Level Washington Center
Sun 10:30:00 AM 39.0335 -76.5164 63° Northeast  Level FlightAware Approximate
Sun 10:30:28 AM 39.0481 -77.0856 45° Northeast 205 236 10,900  Level Washington Center
Sun 10:31:00 AM 39.0862 -76.3878 61° Northeast  Level FlightAware Approximate
Sun 10:31:28 AM 39.0619 -76.9656 81° East 228 262 13,300  Level Washington Center
Sun 10:32:00 AM 39.1227 -76.2547 57° Northeast  Level FlightAware Approximate
Sun 10:32:28 AM 39.0758 -76.8403 82° East 290 334 15,900  Level Washington Center
Sun 10:33:29 AM 39.0936 -76.7069 80° East 341 392 18,100 1,550 Climbing Washington Center
Sun 10:34:28 AM 39.1075 -76.5733 82° East 365 420 19,000 1,008 Climbing Washington Center
Sun 10:35:28 AM 39.1250 -76.4344 81° East 385 443 20,100 1,100 Climbing Washington Center
Sun 10:36:28 AM 39.1406 -76.2928 82° East 395 455 21,200 1,300 Climbing Washington Center
Sun 10:37:28 AM 39.1622 -76.1403 80° East 408 470 22,700 900 Climbing Washington Center
Sun 10:38:28 AM 39.1794 -75.9878 82° East 421 484 23,000 150 Climbing Washington Center
Sun 10:39:28 AM 39.2217 -75.8433 69° East 426 490 23,000 600 Level Washington Center
Sun 10:40:28 AM 39.3072 -75.7311 45° Northeast 411 473 24,200 1,450 Climbing Washington Center
Sun 10:41:28 AM 39.3969 -75.6183 44° Northeast 428 493 25,900 1,550 Climbing Washington Center
Sun 10:42:28 AM 39.4844 -75.5028 46° Northeast 439 505 27,300 1,250 Climbing Washington Center
Sun 10:43:28 AM 39.5758 -75.3842 45° Northeast 455 524 28,400 1,233 Climbing Washington Center
Sun 10:45:28 AM 39.7667 -75.1189 47° Northeast 467 537 31,000 867 Climbing New York Center
Sun 10:46:28 AM 39.8567 -74.9894 48° Northeast 478 550 31,000  Level New York Center
Sun 10:47:29 AM 39.9467 -74.8622 47° Northeast 483 556 31,000  Level New York Center
Sun 10:48:29 AM 40.0344 -74.7372 47° Northeast 477 549 31,000  Level New York Center
Sun 10:49:30 AM 40.1242 -74.6067 48° Northeast 477 549 31,000  Level New York Center
Sun 10:50:30 AM 40.2219 -74.4789 45° Northeast 477 549 31,000  Level New York Center
Sun 10:51:27 AM 40.3292 -74.3839 34° Northeast 476 548 31,000  Level New York Center
Sun 10:52:27 AM 40.4403 -74.2942 32° Northeast 476 548 31,000  Level New York Center
Sun 10:53:28 AM 40.5472 -74.2014 33° Northeast 464 534 31,000  Level New York Center
Sun 10:55:27 AM 40.7700 -74.0214 31° Northeast 467 537 31,000  Level Boston Center
Sun 10:56:27 AM 40.8797 -73.9278 33° Northeast 462 532 31,000  Level Boston Center
Sun 10:57:27 AM 40.9892 -73.8342 33° Northeast 462 532 31,000  Level Boston Center
Sun 10:58:27 AM 41.1008 -73.7458 31° Northeast 462 532 31,000  Level Boston Center
Sun 10:59:27 AM 41.2217 -73.7317 North 426 490 31,000  Level Boston Center
Sun 11:00:27 AM 41.3425 -73.7369 358° North 431 496 31,000  Level Boston Center
Sun 11:01:27 AM 41.4592 -73.7419 358° North 419 482 31,000  Level Boston Center
Sun 11:02:27 AM 41.5800 -73.7472 358° North 419 482 31,000  Level Boston Center
Sun 11:03:27 AM 41.7008 -73.7525 358° North 419 482 31,000  Level Boston Center
Sun 11:04:27 AM 41.8175 -73.7633 356° North 419 482 31,000  Level Boston Center
Sun 11:05:27 AM 41.9342 -73.7683 358° North 419 482 31,000  Level Boston Center
Sun 11:06:27 AM 42.0508 -73.7736 358° North 419 482 31,000 -200 Level Boston Center
Sun 11:07:27 AM 42.1694 -73.7764 359° North 419 482 30,600 -650 Descending Boston Center
Sun 11:08:27 AM 42.2883 -73.7844 357° North 419 482 29,700 -950 Descending Boston Center
Sun 11:09:27 AM 42.4050 -73.7897 358° North 419 482 28,700 -950 Descending Boston Center
Sun 11:10:27 AM 42.5236 -73.7950 358° North 419 482 27,800 -950 Descending Boston Center
Sun 11:11:27 AM 42.6339 -73.8003 358° North 413 475 26,800 -1,000 Descending Boston Center
Sun 11:12:27 AM 42.7444 -73.8028 359° North 406 467 25,800 -950 Descending Boston Center
Sun 11:13:27 AM 42.8575 -73.7628 15° North 401 461 24,900 -900 Descending Boston Center
Sun 11:14:27 AM 42.9642 -73.7225 15° North 401 461 24,000 -450 Descending Boston Center
Sun 11:15:27 AM 43.0689 -73.6850 15° North 395 455 24,000  Level Boston Center
Sun 11:16:27 AM 43.1778 -73.6444 15° North 395 455 24,000  Level Boston Center
Sun 11:17:27 AM 43.2844 -73.6039 15° North 400 460 24,000  Level Boston Center
Sun 11:18:27 AM 43.3911 -73.5686 14° North 395 455 24,000  Level Boston Center
Sun 11:19:27 AM 43.4956 -73.5247 17° North 395 455 24,000 -450 Level Boston Center
Sun 11:20:27 AM 43.6044 -73.4867 14° North 395 455 23,100 -1,350 Descending Boston Center
Sun 11:21:27 AM 43.7025 -73.4481 16° North 383 441 21,300 -1,950 Descending Boston Center
Sun 11:22:27 AM 43.7989 -73.4122 15° North 364 419 19,200 -1,950 Descending Boston Center
Sun 11:23:27 AM 43.8867 -73.3792 15° North 338 389 17,400 -2,200 Descending Boston Center
Sun 11:24:27 AM 43.9722 -73.3458 16° North 325 374 14,800 -2,450 Descending Boston Center
Sun 11:25:27 AM 44.0539 -73.3153 15° North 306 352 12,500 -2,200 Descending Boston Center
Sun 11:26:27 AM 44.1269 -73.2875 15° North 287 330 10,400 -1,900 Descending Boston Center
Sun 11:27:27 AM 44.1731 -73.2331 40° Northeast 244 281 8,700 -1,600 Descending Boston Center
Sun 11:28:27 AM 44.2172 -73.1817 40° Northeast 215 247 7,200 -1,500 Descending Boston Center
Sun 11:29:27 AM 44.2592 -73.1358 38° Northeast 196 226 5,700 -1,600 Descending Boston Center
Sun 11:30:27 AM 44.3031 -73.1044 27° Northeast 177 204 4,000 -1,050 Descending Boston Center
Sun 11:31:27 AM 44.3492 -73.0961 North 169 194 3,600 -400 Descending Boston Center

Login

Don't have an account? Register now (free) for customized features, flight alerts, and more!